Time;durP1;ratioP1;P1;durP2;ratioP2;P2;SDS_P1;SDS_P2;PMS_P1;PMS_P2;Temp;Humidity;BMP_temperature;BMP_pressure;BME280_temperature;BME280_humidity;BME280_pressure;Samples;Min_cycle;Max_cycle;Signal;HPM_P1;HPM_P2
2023/05/18 00:01:06;;;;;;;5.03;2.10;;;;;;;;;;5048816;28;20223;-75
2023/05/18 00:03:34;;;;;;;5.27;2.30;;;;;;;;;;5043727;28;20195;-75
2023/05/18 00:06:03;;;;;;;5.57;2.10;;;;;;;;;;5045070;28;20207;-75
2023/05/18 00:08:30;;;;;;;6.03;2.00;;;;;;;;;;5045643;28;20208;-75
2023/05/18 00:10:58;;;;;;;4.40;2.30;;;;;;;;;;5045406;28;20199;-75
2023/05/18 00:13:25;;;;;;;4.77;2.20;;;;;;;;;;5043036;28;20214;-75
2023/05/18 00:15:52;;;;;;;4.73;2.10;;;;;;;;;;5045473;28;20208;-75
2023/05/18 00:18:22;;;;;;;4.97;2.30;;;;;;;;;;5043296;28;20223;-75
2023/05/18 00:20:50;;;;;;;4.33;1.80;;;;;;;;;;5044376;28;20210;-75
2023/05/18 00:23:17;;;;;;;5.60;2.30;;;;;;;;;;5041673;28;20203;-75
2023/05/18 00:25:44;;;;;;;5.40;2.10;;;;;;;;;;5045968;28;20211;-75
2023/05/18 00:28:11;;;;;;;4.33;2.10;;;;;;;;;;5042399;28;20195;-75
2023/05/18 00:30:39;;;;;;;5.47;2.20;;;;;;;;;;5048327;28;20234;-75
2023/05/18 00:33:06;;;;;;;4.67;2.17;;;;;;;;;;5047042;28;20207;-76
2023/05/18 00:35:35;;;;;;;5.67;2.53;;;;;;;;;;5043918;28;20218;-75
2023/05/18 00:38:02;;;;;;;4.03;1.93;;;;;;;;;;5042764;28;20208;-75
2023/05/18 00:40:29;;;;;;;5.67;2.13;;;;;;;;;;5045445;28;20290;-75
2023/05/18 00:42:56;;;;;;;7.73;2.40;;;;;;;;;;5042544;28;20223;-75
2023/05/18 00:45:25;;;;;;;6.80;2.37;;;;;;;;;;5042871;28;20258;-75
2023/05/18 00:47:52;;;;;;;4.20;2.00;;;;;;;;;;5041646;28;20226;-75
2023/05/18 00:50:19;;;;;;;4.70;1.93;;;;;;;;;;5041360;28;20204;-75
2023/05/18 00:52:50;;;;;;;4.33;2.00;;;;;;;;;;5044354;28;20210;-76
2023/05/18 00:55:17;;;;;;;5.53;2.30;;;;;;;;;;5041831;28;20211;-76
2023/05/18 00:57:47;;;;;;;4.43;2.27;;;;;;;;;;5040329;28;20227;-75
2023/05/18 01:00:14;;;;;;;5.80;2.30;;;;;;;;;;5045726;28;20203;-75
2023/05/18 01:02:44;;;;;;;5.60;2.20;;;;;;;;;;5042337;28;20219;-75
2023/05/18 01:05:12;;;;;;;5.77;2.20;;;;;;;;;;5042516;28;20202;-75
2023/05/18 01:07:41;;;;;;;3.77;1.90;;;;;;;;;;5040781;28;20195;-75
2023/05/18 01:10:10;;;;;;;4.90;2.10;;;;;;;;;;5042636;28;20250;-75
2023/05/18 01:12:40;;;;;;;4.70;2.00;;;;;;;;;;5043259;28;20196;-76
2023/05/18 01:15:09;;;;;;;6.13;2.53;;;;;;;;;;5042329;28;20203;-75
2023/05/18 01:17:39;;;;;;;4.80;2.10;;;;;;;;;;5042402;28;20236;-75
2023/05/18 01:20:13;;;;;;;6.73;2.50;;;;;;;;;;5045373;28;20214;-75
2023/05/18 01:22:50;;;;;;;3.63;2.20;;;;;;;;;;5041265;28;20227;-75
2023/05/18 01:25:28;;;;;;;3.23;2.00;;;;;;;;;;5041817;28;20200;-76
2023/05/18 01:27:58;;;;;;;5.43;2.47;;;;;;;;;;5043752;28;20222;-75
2023/05/18 01:30:26;;;;;;;8.27;2.17;;;;;;;;;;5041562;28;20203;-75
2023/05/18 01:32:53;;;;;;;4.43;2.13;;;;;;;;;;5042516;28;20196;-75
2023/05/18 01:35:20;;;;;;;5.60;2.07;;;;;;;;;;5042810;28;20211;-76
2023/05/18 01:37:47;;;;;;;5.40;2.03;;;;;;;;;;5041500;28;20200;-75
2023/05/18 01:40:14;;;;;;;4.53;1.97;;;;;;;;;;5046236;28;20207;-75
2023/05/18 01:42:45;;;;;;;6.33;2.00;;;;;;;;;;5041709;28;20227;-75
2023/05/18 01:45:16;;;;;;;3.70;2.03;;;;;;;;;;5041636;28;20219;-76
2023/05/18 01:47:45;;;;;;;5.43;2.00;;;;;;;;;;5043616;28;20200;-75
2023/05/18 01:50:14;;;;;;;4.27;1.83;;;;;;;;;;5045489;28;20211;-75
2023/05/18 01:52:43;;;;;;;5.70;1.97;;;;;;;;;;5046241;28;20263;-75
2023/05/18 01:55:11;;;;;;;3.60;1.90;;;;;;;;;;5047355;28;20203;-75
2023/05/18 01:57:40;;;;;;;4.10;2.20;;;;;;;;;;5048288;28;20225;-75
2023/05/18 02:00:09;;;;;;;4.63;2.20;;;;;;;;;;5046376;28;20207;-76
2023/05/18 02:02:37;;;;;;;4.37;2.53;;;;;;;;;;5047028;28;20239;-76
2023/05/18 02:05:06;;;;;;;3.40;2.07;;;;;;;;;;5047263;28;20218;-75
2023/05/18 02:07:33;;;;;;;4.50;2.20;;;;;;;;;;5046744;28;20207;-76
2023/05/18 02:10:00;;;;;;;6.00;1.87;;;;;;;;;;5045689;28;20214;-75
2023/05/18 02:12:27;;;;;;;4.23;2.00;;;;;;;;;;5043665;28;20206;-75
2023/05/18 02:14:57;;;;;;;5.67;2.30;;;;;;;;;;5042649;28;20211;-76
2023/05/18 02:17:25;;;;;;;5.40;2.30;;;;;;;;;;5044480;28;20291;-76
2023/05/18 02:19:55;;;;;;;4.37;2.10;;;;;;;;;;5041925;28;20382;-76
2023/05/18 02:22:22;;;;;;;5.03;2.13;;;;;;;;;;5044130;28;20277;-76
2023/05/18 02:24:49;;;;;;;2.43;1.50;;;;;;;;;;5045565;28;20203;-76
2023/05/18 02:27:17;;;;;;;4.27;2.10;;;;;;;;;;5045169;28;20273;-76
2023/05/18 02:29:44;;;;;;;4.40;2.10;;;;;;;;;;5046872;28;20205;-76
2023/05/18 02:32:11;;;;;;;5.20;2.30;;;;;;;;;;5046577;28;20214;-76
2023/05/18 02:34:40;;;;;;;6.03;1.87;;;;;;;;;;5045315;28;20204;-76
2023/05/18 02:37:09;;;;;;;10.40;2.33;;;;;;;;;;5045217;28;20199;-76
2023/05/18 02:39:36;;;;;;;6.00;2.50;;;;;;;;;;5046311;28;20208;-76
2023/05/18 02:42:03;;;;;;;5.20;2.13;;;;;;;;;;5043254;28;20219;-76
2023/05/18 02:44:30;;;;;;;8.67;2.60;;;;;;;;;;5046644;28;20211;-76
2023/05/18 02:46:57;;;;;;;5.77;2.00;;;;;;;;;;5047569;28;20200;-76
2023/05/18 02:49:25;;;;;;;6.33;2.10;;;;;;;;;;5046647;28;20210;-76
2023/05/18 02:51:52;;;;;;;3.83;1.93;;;;;;;;;;5051525;28;20199;-76
2023/05/18 02:54:20;;;;;;;6.87;2.27;;;;;;;;;;5046552;28;20200;-76
2023/05/18 02:56:47;;;;;;;6.47;2.13;;;;;;;;;;5042818;28;20203;-76
2023/05/18 02:59:15;;;;;;;3.43;1.80;;;;;;;;;;5040301;28;20215;-76
2023/05/18 03:01:42;;;;;;;8.23;2.30;;;;;;;;;;5046529;28;20281;-77
2023/05/18 03:04:09;;;;;;;5.53;1.83;;;;;;;;;;5043600;28;20203;-76
2023/05/18 03:06:37;;;;;;;5.30;2.00;;;;;;;;;;5050489;28;20195;-76
2023/05/18 03:09:04;;;;;;;4.37;2.10;;;;;;;;;;5051137;28;20224;-76
2023/05/18 03:11:32;;;;;;;4.63;2.03;;;;;;;;;;5047221;28;20207;-76
2023/05/18 03:14:00;;;;;;;3.37;1.87;;;;;;;;;;5048268;28;20204;-76
2023/05/18 03:16:27;;;;;;;6.03;2.37;;;;;;;;;;5044943;28;20214;-76
2023/05/18 03:18:57;;;;;;;5.03;2.27;;;;;;;;;;5047810;28;20261;-77
2023/05/18 03:21:24;;;;;;;5.80;2.30;;;;;;;;;;5043211;28;20282;-76
2023/05/18 03:23:51;;;;;;;5.40;2.10;;;;;;;;;;5044793;28;20246;-76
2023/05/18 03:26:18;;;;;;;5.30;2.07;;;;;;;;;;5041694;28;20208;-76
2023/05/18 03:28:47;;;;;;;6.00;1.90;;;;;;;;;;5045456;28;20199;-76
2023/05/18 03:31:14;;;;;;;5.03;2.10;;;;;;;;;;5041158;28;20207;-77
2023/05/18 03:33:41;;;;;;;6.27;2.27;;;;;;;;;;5040256;28;20221;-76
2023/05/18 03:36:08;;;;;;;4.17;1.90;;;;;;;;;;5046191;28;20210;-76
2023/05/18 03:38:35;;;;;;;5.20;2.43;;;;;;;;;;5044631;28;20211;-77
2023/05/18 03:41:03;;;;;;;4.53;2.17;;;;;;;;;;5044426;28;20207;-76
2023/05/18 03:43:31;;;;;;;5.00;2.20;;;;;;;;;;5042841;28;20224;-76
2023/05/18 03:45:59;;;;;;;4.83;2.00;;;;;;;;;;5044885;28;20230;-76
2023/05/18 03:48:27;;;;;;;4.67;2.20;;;;;;;;;;5046084;28;20200;-76
2023/05/18 03:50:54;;;;;;;4.50;2.30;;;;;;;;;;5042626;28;20211;-76
2023/05/18 03:53:22;;;;;;;4.83;2.00;;;;;;;;;;5042283;28;20211;-76
2023/05/18 03:55:50;;;;;;;5.27;2.23;;;;;;;;;;5045025;28;20200;-76
2023/05/18 03:58:18;;;;;;;4.03;1.90;;;;;;;;;;5042900;28;20196;-76
2023/05/18 04:00:46;;;;;;;3.90;1.90;;;;;;;;;;5044570;28;20205;-76
2023/05/18 04:03:14;;;;;;;7.97;2.50;;;;;;;;;;5044735;28;20219;-76
2023/05/18 04:05:42;;;;;;;6.43;2.20;;;;;;;;;;5038062;28;20207;-76
2023/05/18 04:08:13;;;;;;;6.20;2.50;;;;;;;;;;5042789;28;20207;-76
2023/05/18 04:10:40;;;;;;;4.60;2.27;;;;;;;;;;5041521;28;20207;-76
2023/05/18 04:13:07;;;;;;;5.27;2.13;;;;;;;;;;5043195;28;20222;-76
2023/05/18 04:15:35;;;;;;;5.20;2.13;;;;;;;;;;5037918;28;20208;-76
2023/05/18 04:18:02;;;;;;;5.43;1.80;;;;;;;;;;5043751;28;20231;-76
2023/05/18 04:20:30;;;;;;;5.23;1.90;;;;;;;;;;5040186;28;20200;-76
2023/05/18 04:22:58;;;;;;;6.20;2.07;;;;;;;;;;5041779;28;20263;-76
2023/05/18 04:25:26;;;;;;;6.27;2.33;;;;;;;;;;5039929;28;20214;-76
2023/05/18 04:27:54;;;;;;;6.53;2.47;;;;;;;;;;5044712;28;20203;-76
2023/05/18 04:30:22;;;;;;;5.83;2.30;;;;;;;;;;5040180;28;20199;-76
2023/05/18 04:32:49;;;;;;;5.87;1.90;;;;;;;;;;5042073;28;20218;-76
2023/05/18 04:35:17;;;;;;;5.37;1.93;;;;;;;;;;5039058;28;20207;-76
2023/05/18 04:37:45;;;;;;;6.83;2.17;;;;;;;;;;5042514;28;20212;-76
2023/05/18 04:40:15;;;;;;;8.33;2.17;;;;;;;;;;5043371;28;20215;-76
2023/05/18 04:42:44;;;;;;;6.97;1.93;;;;;;;;;;5043917;28;20227;-76
2023/05/18 04:45:15;;;;;;;6.97;2.40;;;;;;;;;;5042461;28;20214;-76
2023/05/18 04:47:45;;;;;;;5.50;2.13;;;;;;;;;;5039732;28;20207;-76
2023/05/18 04:50:12;;;;;;;5.37;2.17;;;;;;;;;;5042739;28;20211;-76
2023/05/18 04:52:40;;;;;;;5.30;2.43;;;;;;;;;;5043485;28;20191;-76
2023/05/18 04:55:10;;;;;;;6.30;2.40;;;;;;;;;;5043799;28;20215;-76
2023/05/18 04:57:37;;;;;;;7.57;2.40;;;;;;;;;;5042107;28;20207;-76
2023/05/18 05:00:05;;;;;;;5.57;2.33;;;;;;;;;;5038652;28;20199;-76
2023/05/18 05:02:32;;;;;;;3.73;2.17;;;;;;;;;;5040884;28;20231;-76
2023/05/18 05:04:59;;;;;;;5.63;2.50;;;;;;;;;;5037196;28;20199;-76
2023/05/18 05:07:26;;;;;;;5.63;1.87;;;;;;;;;;5039630;28;20200;-76
2023/05/18 05:09:53;;;;;;;4.07;2.03;;;;;;;;;;5041442;28;20222;-76
2023/05/18 05:12:22;;;;;;;3.93;2.03;;;;;;;;;;5046018;28;20207;-76
2023/05/18 05:14:49;;;;;;;5.63;2.20;;;;;;;;;;5047657;28;20202;-76
2023/05/18 05:17:16;;;;;;;6.40;2.17;;;;;;;;;;5048237;28;20238;-76
2023/05/18 05:19:43;;;;;;;4.60;2.23;;;;;;;;;;5044892;28;20215;-76
2023/05/18 05:22:11;;;;;;;7.93;2.30;;;;;;;;;;5043843;28;20211;-76
2023/05/18 05:24:38;;;;;;;5.13;2.33;;;;;;;;;;5041406;28;20199;-75
2023/05/18 05:27:06;;;;;;;4.97;2.20;;;;;;;;;;5048507;28;20203;-74
2023/05/18 05:29:34;;;;;;;8.00;2.33;;;;;;;;;;5049203;28;20213;-74
2023/05/18 05:32:01;;;;;;;4.70;2.23;;;;;;;;;;5050777;28;20214;-74
2023/05/18 05:34:28;;;;;;;4.73;1.83;;;;;;;;;;5053482;28;20203;-74
2023/05/18 05:36:55;;;;;;;4.83;2.00;;;;;;;;;;5051772;28;20208;-74
2023/05/18 05:39:23;;;;;;;4.30;2.27;;;;;;;;;;5053020;28;20207;-73
2023/05/18 05:41:50;;;;;;;7.93;2.30;;;;;;;;;;5048967;28;20207;-73
2023/05/18 05:44:17;;;;;;;4.47;1.83;;;;;;;;;;5047410;28;20230;-73
2023/05/18 05:46:46;;;;;;;3.97;2.00;;;;;;;;;;5050486;28;20290;-73
2023/05/18 05:49:13;;;;;;;6.63;2.30;;;;;;;;;;5044163;28;20210;-73
2023/05/18 05:51:40;;;;;;;5.67;2.30;;;;;;;;;;5045379;28;20222;-73
2023/05/18 05:54:07;;;;;;;6.03;1.97;;;;;;;;;;5045383;28;20219;-73
2023/05/18 05:56:34;;;;;;;5.33;2.20;;;;;;;;;;5042971;28;20204;-72
2023/05/18 05:59:01;;;;;;;4.27;2.50;;;;;;;;;;5045375;28;20203;-73
2023/05/18 06:01:28;;;;;;;6.80;2.30;;;;;;;;;;5049038;28;20195;-72
2023/05/18 06:03:56;;;;;;;3.80;2.00;;;;;;;;;;5044892;28;20228;-72
2023/05/18 06:06:24;;;;;;;8.07;2.20;;;;;;;;;;5043032;28;20211;-73
2023/05/18 06:08:51;;;;;;;5.03;1.90;;;;;;;;;;5053800;28;20226;-72
2023/05/18 06:11:18;;;;;;;5.70;2.30;;;;;;;;;;5050821;28;20199;-72
2023/05/18 06:13:45;;;;;;;5.53;2.23;;;;;;;;;;5048210;28;20201;-73
2023/05/18 06:16:12;;;;;;;4.33;2.00;;;;;;;;;;5048190;28;20205;-71
2023/05/18 06:18:39;;;;;;;9.50;2.30;;;;;;;;;;5044639;28;20239;-71
2023/05/18 06:21:08;;;;;;;5.60;2.33;;;;;;;;;;5043074;28;20218;-72
2023/05/18 06:23:35;;;;;;;6.67;2.30;;;;;;;;;;5047204;28;20215;-72
2023/05/18 06:26:02;;;;;;;6.17;2.00;;;;;;;;;;5046240;28;20214;-71
2023/05/18 06:28:29;;;;;;;7.03;2.20;;;;;;;;;;5049554;28;20196;-71
2023/05/18 06:30:57;;;;;;;7.47;1.90;;;;;;;;;;5045432;28;20205;-72
2023/05/18 06:33:24;;;;;;;7.13;2.23;;;;;;;;;;5050918;28;20200;-71
2023/05/18 06:35:52;;;;;;;5.10;2.03;;;;;;;;;;5042189;28;20203;-71
2023/05/18 06:38:20;;;;;;;7.80;1.90;;;;;;;;;;5050119;28;20211;-71
2023/05/18 06:40:47;;;;;;;6.07;2.30;;;;;;;;;;5047690;28;20200;-70
2023/05/18 06:43:14;;;;;;;3.43;1.93;;;;;;;;;;5049145;28;20223;-70
2023/05/18 06:45:41;;;;;;;4.97;1.90;;;;;;;;;;5043709;28;20196;-70
2023/05/18 06:48:08;;;;;;;5.10;1.80;;;;;;;;;;5052654;28;20203;-70
2023/05/18 06:50:36;;;;;;;6.77;2.20;;;;;;;;;;5046771;28;20204;-70
2023/05/18 06:53:03;;;;;;;5.03;2.00;;;;;;;;;;5052773;28;20218;-70
2023/05/18 06:55:31;;;;;;;5.93;2.00;;;;;;;;;;5049031;28;20241;-70
2023/05/18 06:57:58;;;;;;;5.53;2.13;;;;;;;;;;5046248;28;20207;-70
2023/05/18 07:00:26;;;;;;;3.73;1.67;;;;;;;;;;5045610;28;20218;-70
2023/05/18 07:02:53;;;;;;;4.30;1.97;;;;;;;;;;5044539;28;20207;-70
2023/05/18 07:05:20;;;;;;;4.83;1.80;;;;;;;;;;5047912;28;20203;-70
2023/05/18 07:07:47;;;;;;;5.37;1.80;;;;;;;;;;5046188;28;20199;-69
2023/05/18 07:10:15;;;;;;;7.67;1.80;;;;;;;;;;5047495;28;20207;-70
2023/05/18 07:12:43;;;;;;;5.30;1.90;;;;;;;;;;5046223;28;20203;-70
2023/05/18 07:15:11;;;;;;;5.17;2.27;;;;;;;;;;5047603;28;20208;-69
2023/05/18 07:17:38;;;;;;;5.13;1.80;;;;;;;;;;5045297;28;20227;-69
2023/05/18 07:20:06;;;;;;;4.40;1.80;;;;;;;;;;5045803;28;20250;-69
2023/05/18 07:22:33;;;;;;;6.37;2.23;;;;;;;;;;5050072;28;20199;-69
2023/05/18 07:25:00;;;;;;;4.53;2.10;;;;;;;;;;5049357;28;20227;-70
2023/05/18 07:27:27;;;;;;;5.32;1.88;;;;;;;;;;5047570;28;20200;-70
2023/05/18 07:29:56;;;;;;;5.80;1.73;;;;;;;;;;5048703;28;20207;-70
2023/05/18 07:32:23;;;;;;;7.03;2.13;;;;;;;;;;5043634;28;20208;-70
2023/05/18 07:34:50;;;;;;;4.28;1.80;;;;;;;;;;5053624;28;20208;-69
2023/05/18 07:37:17;;;;;;;6.35;1.95;;;;;;;;;;5050300;28;20223;-69
2023/05/18 07:39:44;;;;;;;6.55;1.90;;;;;;;;;;5046107;28;20207;-69
2023/05/18 07:42:11;;;;;;;5.78;2.30;;;;;;;;;;5041911;28;20285;-69
2023/05/18 07:44:39;;;;;;;6.57;1.80;;;;;;;;;;5051095;28;20218;-69
2023/05/18 07:47:07;;;;;;;3.72;2.30;;;;;;;;;;5042242;28;20199;-70
2023/05/18 07:49:34;;;;;;;3.22;1.65;;;;;;;;;;5044031;28;20199;-69
2023/05/18 07:52:01;;;;;;;5.88;2.08;;;;;;;;;;5045573;28;20199;-70
2023/05/18 07:54:28;;;;;;;5.00;1.90;;;;;;;;;;5038781;28;20204;-69
2023/05/18 07:56:56;;;;;;;5.32;1.92;;;;;;;;;;5044673;28;20218;-69
2023/05/18 07:59:23;;;;;;;6.57;2.05;;;;;;;;;;5042550;28;20214;-69
2023/05/18 08:01:50;;;;;;;4.78;1.98;;;;;;;;;;5040998;28;20203;-70
2023/05/18 08:04:18;;;;;;;5.22;1.83;;;;;;;;;;5045218;28;20216;-69
2023/05/18 08:06:46;;;;;;;5.70;1.75;;;;;;;;;;5043100;28;20200;-70
2023/05/18 08:09:13;;;;;;;5.40;2.22;;;;;;;;;;5043976;28;20218;-69
2023/05/18 08:11:40;;;;;;;4.63;2.10;;;;;;;;;;5046306;28;20195;-69
2023/05/18 08:14:07;;;;;;;3.90;1.73;;;;;;;;;;5040713;28;20196;-69
2023/05/18 08:16:36;;;;;;;4.55;1.90;;;;;;;;;;5045340;28;20211;-69
2023/05/18 08:19:03;;;;;;;4.63;2.20;;;;;;;;;;5042753;28;20196;-69
2023/05/18 08:21:32;;;;;;;7.32;2.20;;;;;;;;;;5040868;28;20196;-70
2023/05/18 08:23:59;;;;;;;6.40;2.22;;;;;;;;;;5039969;28;20235;-70
2023/05/18 08:26:26;;;;;;;5.10;1.80;;;;;;;;;;5047193;28;20203;-70
2023/05/18 08:28:54;;;;;;;5.88;2.05;;;;;;;;;;5044584;28;20257;-70
2023/05/18 08:31:21;;;;;;;5.47;2.30;;;;;;;;;;5043957;28;20199;-70
2023/05/18 08:33:48;;;;;;;5.43;2.05;;;;;;;;;;5040306;28;20204;-70
2023/05/18 08:36:16;;;;;;;3.65;1.60;;;;;;;;;;5044312;28;20198;-70
2023/05/18 08:38:44;;;;;;;4.00;2.20;;;;;;;;;;5046199;28;20253;-71
2023/05/18 08:41:15;;;;;;;5.05;2.08;;;;;;;;;;5043729;28;20210;-71
2023/05/18 08:43:43;;;;;;;4.95;2.38;;;;;;;;;;5040016;28;20228;-71
2023/05/18 08:46:15;;;;;;;4.63;2.17;;;;;;;;;;5041432;28;20214;-70
2023/05/18 08:48:44;;;;;;;4.95;1.90;;;;;;;;;;5046639;28;20207;-70
2023/05/18 08:51:13;;;;;;;5.00;1.95;;;;;;;;;;5042158;28;20249;-71
2023/05/18 08:53:40;;;;;;;7.47;1.80;;;;;;;;;;5040596;28;20200;-71
2023/05/18 08:56:10;;;;;;;3.97;2.00;;;;;;;;;;5043552;28;20219;-70
2023/05/18 08:58:44;;;;;;;5.10;2.00;;;;;;;;;;5045537;28;20199;-70
2023/05/18 09:01:12;;;;;;;5.07;2.00;;;;;;;;;;5048324;28;20214;-72
2023/05/18 09:03:39;;;;;;;5.03;2.15;;;;;;;;;;5049040;28;20216;-71
2023/05/18 09:06:08;;;;;;;5.65;2.00;;;;;;;;;;5050945;28;20206;-71
2023/05/18 09:08:35;;;;;;;5.78;1.83;;;;;;;;;;5049799;28;20200;-71
2023/05/18 09:11:03;;;;;;;4.65;2.05;;;;;;;;;;5045257;28;20282;-71
2023/05/18 09:13:31;;;;;;;5.00;2.35;;;;;;;;;;5050904;28;20207;-70
2023/05/18 09:15:58;;;;;;;5.40;1.80;;;;;;;;;;5048108;28;20203;-72
2023/05/18 09:18:26;;;;;;;7.13;2.15;;;;;;;;;;5051121;28;20235;-72
2023/05/18 09:20:53;;;;;;;6.82;1.95;;;;;;;;;;5050439;28;20219;-71
2023/05/18 09:23:20;;;;;;;5.97;2.30;;;;;;;;;;5049100;28;20209;-71
2023/05/18 09:25:48;;;;;;;3.65;1.80;;;;;;;;;;5043397;28;20226;-71
2023/05/18 09:28:26;;;;;;;3.78;2.05;;;;;;;;;;5049638;28;20204;-72
2023/05/18 09:30:54;;;;;;;5.07;1.92;;;;;;;;;;5051587;28;20204;-70
2023/05/18 09:33:22;;;;;;;6.75;2.47;;;;;;;;;;5049222;28;20298;-71
2023/05/18 09:35:50;;;;;;;5.43;1.92;;;;;;;;;;5045347;28;20203;-71
2023/05/18 09:38:20;;;;;;;7.93;2.13;;;;;;;;;;5050803;28;20212;-71
2023/05/18 09:40:48;;;;;;;5.55;1.83;;;;;;;;;;5046637;28;20200;-70
2023/05/18 09:43:17;;;;;;;4.85;2.30;;;;;;;;;;5048637;28;20237;-70
2023/05/18 09:45:45;;;;;;;6.03;1.83;;;;;;;;;;5045094;28;20230;-71
2023/05/18 09:48:14;;;;;;;7.88;2.05;;;;;;;;;;5046925;28;20207;-72
2023/05/18 09:50:41;;;;;;;3.83;1.70;;;;;;;;;;5049550;28;20214;-70
2023/05/18 09:53:08;;;;;;;5.60;2.00;;;;;;;;;;5048773;28;20215;-70
2023/05/18 09:55:38;;;;;;;5.28;2.20;;;;;;;;;;5050272;28;20199;-70
2023/05/18 09:58:07;;;;;;;4.93;1.98;;;;;;;;;;5049577;28;20212;-69
2023/05/18 10:00:38;;;;;;;6.03;2.30;;;;;;;;;;5047397;28;20207;-69
2023/05/18 10:03:05;;;;;;;7.90;2.20;;;;;;;;;;5048922;28;20203;-69
2023/05/18 10:05:35;;;;;;;6.20;2.20;;;;;;;;;;5046959;28;20227;-70
2023/05/18 10:08:02;;;;;;;5.70;2.00;;;;;;;;;;5051800;28;20208;-69
2023/05/18 10:10:29;;;;;;;6.03;1.80;;;;;;;;;;5052492;28;20210;-72
2023/05/18 10:12:57;;;;;;;3.70;1.83;;;;;;;;;;5052487;28;20212;-71
2023/05/18 10:15:25;;;;;;;6.90;2.17;;;;;;;;;;5052149;28;20199;-71
2023/05/18 10:17:54;;;;;;;5.65;2.15;;;;;;;;;;5052515;28;20239;-71
2023/05/18 10:20:23;;;;;;;5.63;2.60;;;;;;;;;;5052751;28;20210;-71
2023/05/18 10:22:51;;;;;;;4.88;2.20;;;;;;;;;;5052587;28;20215;-70
2023/05/18 10:25:19;;;;;;;4.05;1.75;;;;;;;;;;5052854;28;20224;-71
2023/05/18 10:27:48;;;;;;;4.93;2.00;;;;;;;;;;5052613;28;20210;-71
2023/05/18 10:30:16;;;;;;;8.05;2.58;;;;;;;;;;5053574;28;20214;-71
2023/05/18 10:32:44;;;;;;;4.10;2.00;;;;;;;;;;5053157;28;20203;-72
2023/05/18 10:35:12;;;;;;;6.78;2.35;;;;;;;;;;5052629;28;20214;-71
2023/05/18 10:37:40;;;;;;;7.50;2.25;;;;;;;;;;5052520;28;20199;-70
2023/05/18 10:40:09;;;;;;;4.80;2.10;;;;;;;;;;5052062;28;20203;-72
2023/05/18 10:42:36;;;;;;;3.80;2.00;;;;;;;;;;5052078;28;20205;-71
2023/05/18 10:45:04;;;;;;;5.07;2.28;;;;;;;;;;5052990;28;20238;-71
2023/05/18 10:47:31;;;;;;;5.05;2.05;;;;;;;;;;5050813;28;20234;-69
2023/05/18 10:49:59;;;;;;;6.72;2.53;;;;;;;;;;5053283;28;20269;-72
2023/05/18 10:52:30;;;;;;;5.60;2.58;;;;;;;;;;5052496;28;20206;-70
2023/05/18 10:54:59;;;;;;;4.72;2.20;;;;;;;;;;5052884;28;20207;-71
2023/05/18 10:57:30;;;;;;;4.65;2.22;;;;;;;;;;5050542;28;20211;-71
2023/05/18 10:59:58;;;;;;;3.65;1.85;;;;;;;;;;5052180;28;20207;-71
2023/05/18 11:02:26;;;;;;;4.85;1.85;;;;;;;;;;5051462;28;20210;-71
2023/05/18 11:04:55;;;;;;;4.35;1.73;;;;;;;;;;5052787;28;20215;-70
2023/05/18 11:07:27;;;;;;;4.72;2.08;;;;;;;;;;5052329;28;20241;-70
2023/05/18 11:09:54;;;;;;;5.28;2.10;;;;;;;;;;5051704;28;20219;-70
2023/05/18 11:12:23;;;;;;;8.30;2.22;;;;;;;;;;5052021;28;20207;-70
2023/05/18 11:14:52;;;;;;;5.13;1.98;;;;;;;;;;5051574;28;20214;-71
2023/05/18 11:17:20;;;;;;;3.85;2.10;;;;;;;;;;5052248;28;20302;-71
2023/05/18 11:20:06;;;;;;;4.35;1.83;;;;;;;;;;5051144;28;20261;-72
2023/05/18 11:22:41;;;;;;;2.83;1.73;;;;;;;;;;5051787;28;20303;-70
2023/05/18 11:25:09;;;;;;;5.78;2.13;;;;;;;;;;5051555;28;20235;-71
2023/05/18 11:27:36;;;;;;;3.58;1.85;;;;;;;;;;5051811;28;20203;-71
2023/05/18 11:30:05;;;;;;;6.07;2.00;;;;;;;;;;5051518;28;20208;-72
2023/05/18 11:32:32;;;;;;;5.40;2.28;;;;;;;;;;5050364;28;20213;-71
2023/05/18 11:34:59;;;;;;;3.97;1.83;;;;;;;;;;5052565;28;20203;-72
2023/05/18 11:37:57;;;;;;;4.05;1.98;;;;;;;;;;5052175;28;20291;-72
2023/05/18 11:40:42;;;;;;;3.35;1.75;;;;;;;;;;4969677;28;20210;-72
2023/05/18 11:43:09;;;;;;;6.25;2.13;;;;;;;;;;5043292;28;20204;-71
2023/05/18 11:45:52;;;;;;;6.32;2.28;;;;;;;;;;5052006;28;20234;-72
2023/05/18 11:48:21;;;;;;;5.40;2.22;;;;;;;;;;5050424;28;20208;-70
2023/05/18 11:50:48;;;;;;;4.93;2.25;;;;;;;;;;5051122;28;20228;-71
2023/05/18 11:53:16;;;;;;;8.27;2.25;;;;;;;;;;5050516;28;20298;-71
2023/05/18 11:55:44;;;;;;;5.07;1.92;;;;;;;;;;5051701;28;20203;-72
2023/05/18 11:58:17;;;;;;;6.38;1.90;;;;;;;;;;5051360;28;20261;-71
2023/05/18 12:00:46;;;;;;;7.88;2.00;;;;;;;;;;5051421;28;20290;-71
2023/05/18 12:03:15;;;;;;;6.50;2.03;;;;;;;;;;5047876;28;20215;-71
2023/05/18 12:05:47;;;;;;;3.83;2.30;;;;;;;;;;5049092;28;20218;-72
2023/05/18 12:08:16;;;;;;;3.75;1.90;;;;;;;;;;5049882;28;20302;-71
2023/05/18 12:10:45;;;;;;;6.90;2.50;;;;;;;;;;5050113;28;20207;-70
2023/05/18 12:13:13;;;;;;;5.03;2.22;;;;;;;;;;5050079;28;20199;-71
2023/05/18 12:15:40;;;;;;;5.03;2.00;;;;;;;;;;5051466;28;20552;-70
2023/05/18 12:18:09;;;;;;;6.15;2.13;;;;;;;;;;5051086;28;20247;-70
2023/05/18 12:20:39;;;;;;;4.85;2.05;;;;;;;;;;5050742;28;20203;-70
2023/05/18 12:23:06;;;;;;;4.45;2.30;;;;;;;;;;5049768;28;20212;-70
2023/05/18 12:25:33;;;;;;;6.63;2.20;;;;;;;;;;5051204;28;20227;-70
2023/05/18 12:28:03;;;;;;;4.00;2.08;;;;;;;;;;5051374;28;20219;-70
2023/05/18 12:30:34;;;;;;;4.70;2.30;;;;;;;;;;5051057;28;20200;-70
2023/05/18 12:33:02;;;;;;;4.40;1.95;;;;;;;;;;5051579;28;20223;-71
2023/05/18 12:35:31;;;;;;;4.28;1.90;;;;;;;;;;5048004;28;20195;-70
2023/05/18 12:38:00;;;;;;;3.58;1.92;;;;;;;;;;5051074;28;20199;-69
2023/05/18 12:40:27;;;;;;;6.78;1.95;;;;;;;;;;5050634;28;20302;-70
2023/05/18 12:42:55;;;;;;;5.38;2.08;;;;;;;;;;5048646;28;20218;-70
2023/05/18 12:45:24;;;;;;;4.05;2.10;;;;;;;;;;5050024;28;20313;-70
2023/05/18 12:47:53;;;;;;;4.68;1.70;;;;;;;;;;5050853;28;20218;-71
2023/05/18 12:50:20;;;;;;;6.78;1.98;;;;;;;;;;5049507;28;20211;-70
2023/05/18 12:52:49;;;;;;;6.10;2.17;;;;;;;;;;5050834;28;20207;-70
2023/05/18 12:55:20;;;;;;;5.68;2.38;;;;;;;;;;5050679;28;20199;-70
2023/05/18 12:57:58;;;;;;;6.00;2.05;;;;;;;;;;5049764;28;20215;-70
2023/05/18 13:00:25;;;;;;;4.43;2.20;;;;;;;;;;5050915;28;20191;-70
2023/05/18 13:02:52;;;;;;;4.72;2.10;;;;;;;;;;5050524;28;20211;-69
2023/05/18 13:05:24;;;;;;;3.92;1.80;;;;;;;;;;5051119;28;20223;-69
2023/05/18 13:07:52;;;;;;;3.95;2.00;;;;;;;;;;5048976;28;20274;-71
2023/05/18 13:10:20;;;;;;;4.13;1.90;;;;;;;;;;5050210;28;20215;-70
2023/05/18 13:12:48;;;;;;;5.80;2.25;;;;;;;;;;5050896;28;20203;-70
2023/05/18 13:15:16;;;;;;;4.32;2.25;;;;;;;;;;5050699;28;20195;-70
2023/05/18 13:17:56;;;;;;;4.28;1.92;;;;;;;;;;5050487;28;20326;-70
2023/05/18 13:20:23;;;;;;;6.07;2.45;;;;;;;;;;5051053;28;20249;-70
2023/05/18 13:22:51;;;;;;;5.13;2.20;;;;;;;;;;5049760;28;20214;-69
2023/05/18 13:25:19;;;;;;;3.97;2.00;;;;;;;;;;5049761;28;20219;-68
2023/05/18 13:27:48;;;;;;;4.88;2.25;;;;;;;;;;5050332;28;20401;-69
2023/05/18 13:30:15;;;;;;;5.75;2.25;;;;;;;;;;5049749;28;20207;-69
2023/05/18 13:32:42;;;;;;;3.70;2.33;;;;;;;;;;5050671;28;20215;-68
2023/05/18 13:35:10;;;;;;;6.03;2.65;;;;;;;;;;5050298;28;20211;-69
2023/05/18 13:37:38;;;;;;;4.57;2.13;;;;;;;;;;5050844;28;20203;-68
2023/05/18 13:40:06;;;;;;;4.88;2.20;;;;;;;;;;5049758;28;20218;-69
2023/05/18 13:42:34;;;;;;;6.22;2.28;;;;;;;;;;5048713;28;20207;-69
2023/05/18 13:45:01;;;;;;;5.53;2.38;;;;;;;;;;5050257;28;20204;-69
2023/05/18 13:47:28;;;;;;;5.28;2.22;;;;;;;;;;5053817;28;20207;-72
2023/05/18 13:49:55;;;;;;;4.05;1.90;;;;;;;;;;5053690;28;20207;-69
2023/05/18 13:52:22;;;;;;;3.70;1.80;;;;;;;;;;5054050;28;20223;-70
2023/05/18 13:54:50;;;;;;;4.53;2.00;;;;;;;;;;5053922;28;20215;-70
2023/05/18 13:57:17;;;;;;;3.58;1.98;;;;;;;;;;5053525;28;20204;-69
2023/05/18 13:59:46;;;;;;;4.47;2.03;;;;;;;;;;5052840;28;20214;-70
2023/05/18 14:02:13;;;;;;;4.45;2.38;;;;;;;;;;5052719;28;20227;-70
2023/05/18 14:04:40;;;;;;;3.58;2.05;;;;;;;;;;5053848;28;20266;-70
2023/05/18 14:07:11;;;;;;;5.57;2.10;;;;;;;;;;5053654;28;20258;-69
2023/05/18 14:09:38;;;;;;;4.43;2.20;;;;;;;;;;5051195;28;20203;-70
2023/05/18 14:12:05;;;;;;;4.65;1.88;;;;;;;;;;5053339;28;20290;-69
2023/05/18 14:14:33;;;;;;;8.15;2.25;;;;;;;;;;5052976;28;20215;-69
2023/05/18 14:17:01;;;;;;;5.80;2.20;;;;;;;;;;5053249;28;20251;-68
2023/05/18 14:19:28;;;;;;;5.80;2.00;;;;;;;;;;5052174;28;20222;-70
2023/05/18 14:21:55;;;;;;;5.18;2.00;;;;;;;;;;5051153;28;20215;-70
2023/05/18 14:24:22;;;;;;;5.90;2.50;;;;;;;;;;5053504;28;20219;-70
2023/05/18 14:26:52;;;;;;;4.05;2.05;;;;;;;;;;5046415;28;20222;-63
2023/05/18 14:29:19;;;;;;;2.83;1.70;;;;;;;;;;5038902;28;20237;-61
2023/05/18 14:31:46;;;;;;;4.30;1.92;;;;;;;;;;5041898;28;20200;-63
2023/05/18 14:34:14;;;;;;;5.30;2.08;;;;;;;;;;5035096;28;20241;-62
2023/05/18 14:36:42;;;;;;;2.92;1.70;;;;;;;;;;5043982;28;20192;-62
2023/05/18 14:39:09;;;;;;;4.10;1.80;;;;;;;;;;5046276;28;20215;-62
2023/05/18 14:41:36;;;;;;;4.75;2.25;;;;;;;;;;5047367;28;20207;-63
2023/05/18 14:44:03;;;;;;;3.92;1.90;;;;;;;;;;5049110;28;20220;-62
2023/05/18 14:46:30;;;;;;;3.40;1.90;;;;;;;;;;5049483;28;20289;-62
2023/05/18 14:48:57;;;;;;;4.70;2.20;;;;;;;;;;5042698;28;20218;-62